Time;durP1;ratioP1;P1;durP2;ratioP2;P2;SDS_P1;SDS_P2;PMS_P1;PMS_P2;Temp;Humidity;BMP_temperature;BMP_pressure;BME280_temperature;BME280_humidity;BME280_pressure;Samples;Min_cycle;Max_cycle;Signal;HPM_P1;HPM_P2
2022/11/29 00:00:45;;;;;;;22.42;11.98;;;;;;;7.25;53.76;101512.53;7392481;19;19998;-62
2022/11/29 00:03:12;;;;;;;25.52;11.98;;;;;;;7.39;53.35;101513.34;7392600;19;20419;-62
2022/11/29 00:05:38;;;;;;;22.25;12.00;;;;;;;7.39;53.44;101515.25;7390773;19;19999;-61
2022/11/29 00:08:04;;;;;;;21.42;11.27;;;;;;;7.46;53.30;101523.78;7391365;19;20006;-62
2022/11/29 00:10:29;;;;;;;23.23;11.00;;;;;;;7.38;53.47;101510.94;7392412;19;20021;-61
2022/11/29 00:12:55;;;;;;;25.13;12.32;;;;;;;7.37;53.54;101504.69;7388747;19;20007;-62
2022/11/29 00:15:21;;;;;;;20.80;12.05;;;;;;;7.38;53.48;101505.50;7392089;19;20030;-62
2022/11/29 00:17:46;;;;;;;23.98;11.70;;;;;;;7.40;53.38;101517.66;7392214;19;20467;-62
2022/11/29 00:20:12;;;;;;;24.58;12.25;;;;;;;7.35;53.43;101516.97;7392144;19;19998;-62
2022/11/29 00:22:38;;;;;;;23.33;11.50;;;;;;;7.35;53.54;101516.97;7392187;19;20022;-62
2022/11/29 00:25:05;;;;;;;19.33;10.65;;;;;;;7.39;53.55;101516.03;7390104;19;20094;-61
2022/11/29 00:27:31;;;;;;;26.77;12.07;;;;;;;7.35;53.52;101517.78;7392492;19;20014;-61
2022/11/29 00:29:56;;;;;;;21.73;11.68;;;;;;;7.41;53.53;101515.75;7391096;19;20328;-61
2022/11/29 00:32:22;;;;;;;23.38;11.73;;;;;;;7.42;53.31;101522.81;7392124;19;19998;-61
2022/11/29 00:34:48;;;;;;;23.23;12.00;;;;;;;7.39;53.52;101516.03;7391383;19;20003;-62
2022/11/29 00:37:14;;;;;;;22.65;12.50;;;;;;;7.39;53.61;101518.75;7390626;19;20007;-61
2022/11/29 00:39:40;;;;;;;24.17;12.60;;;;;;;7.35;53.38;101517.78;7391768;19;20500;-62
2022/11/29 00:42:06;;;;;;;22.08;12.82;;;;;;;7.36;53.39;101530.25;7390596;19;20473;-61
2022/11/29 00:44:32;;;;;;;21.83;11.95;;;;;;;7.40;53.31;101520.38;7389217;19;20324;-62
2022/11/29 00:46:57;;;;;;;23.10;12.60;;;;;;;7.46;53.27;101523.78;7391660;19;19998;-62
2022/11/29 00:49:23;;;;;;;22.60;11.27;;;;;;;7.42;53.12;101523.59;7391423;19;20470;-62
2022/11/29 00:51:49;;;;;;;21.67;11.80;;;;;;;7.37;53.33;101523.69;7387755;19;19994;-62
2022/11/29 00:54:16;;;;;;;21.75;12.23;;;;;;;7.37;53.50;101523.69;7391888;19;20073;-62
2022/11/29 00:56:41;;;;;;;21.15;11.82;;;;;;;7.40;53.55;101517.66;7390219;19;20006;-62
2022/11/29 00:59:07;;;;;;;20.42;11.85;;;;;;;7.42;53.28;101518.16;7389918;19;19998;-62
2022/11/29 01:01:33;;;;;;;21.73;12.88;;;;;;;7.32;53.60;101514.84;7390320;19;20659;-62
2022/11/29 01:04:00;;;;;;;21.08;12.05;;;;;;;7.38;53.41;101517.16;7391435;19;20006;-61
2022/11/29 01:06:26;;;;;;;20.05;12.10;;;;;;;7.44;53.26;101511.63;7387153;19;20474;-62
2022/11/29 01:08:52;;;;;;;22.42;12.10;;;;;;;7.39;53.55;101513.34;7389948;19;20033;-62
2022/11/29 01:11:24;;;;;;;22.50;12.27;;;;;;;7.39;53.41;101526.91;7390042;19;20002;-62
2022/11/29 01:13:53;;;;;;;25.45;13.13;;;;;;;7.41;53.44;101518.47;7388762;19;20022;-62
2022/11/29 01:16:19;;;;;;;23.15;13.60;;;;;;;7.31;53.68;101516.78;7390349;19;20007;-62
2022/11/29 01:18:45;;;;;;;24.67;12.63;;;;;;;7.26;53.88;101525.00;7389896;19;20612;-62
2022/11/29 01:21:17;;;;;;;21.38;12.23;;;;;;;7.38;53.48;101538.09;7390309;19;20477;-61
2022/11/29 01:23:43;;;;;;;24.63;12.80;;;;;;;7.35;53.41;101528.63;7391605;19;19994;-62
2022/11/29 01:26:21;;;;;;;25.25;13.63;;;;;;;7.31;53.72;101533.06;7388177;19;20010;-61
2022/11/29 01:28:49;;;;;;;22.38;12.98;;;;;;;7.39;53.38;101535.06;7388777;19;20010;-61
2022/11/29 01:31:24;;;;;;;24.17;13.18;;;;;;;7.46;53.24;101539.28;7390179;19;20020;-61
2022/11/29 01:33:54;;;;;;;23.55;13.90;;;;;;;7.50;53.36;101541.13;7389825;19;19994;-62
2022/11/29 01:36:20;;;;;;;24.23;13.65;;;;;;;7.50;53.23;101545.75;7390650;19;20062;-62
2022/11/29 01:38:46;;;;;;;26.48;13.85;;;;;;;7.53;53.10;101539.69;7389778;19;20030;-61
2022/11/29 01:41:15;;;;;;;25.00;13.10;;;;;;;7.49;53.18;101542.22;7390025;19;20006;-62
2022/11/29 01:43:56;;;;;;;25.42;13.60;;;;;;;7.48;53.39;101542.50;7389839;19;20024;-61
2022/11/29 01:46:22;;;;;;;24.38;12.82;;;;;;;7.35;53.64;101547.66;7389677;19;20006;-62
2022/11/29 01:48:49;;;;;;;24.42;13.00;;;;;;;7.43;53.54;101546.16;7388058;19;20007;-62
2022/11/29 01:51:14;;;;;;;23.95;13.52;;;;;;;7.45;53.42;101545.84;7389248;19;20034;-62
2022/11/29 01:53:40;;;;;;;26.42;13.32;;;;;;;7.41;53.47;101549.16;7389910;19;20007;-63
2022/11/29 01:56:06;;;;;;;27.63;12.52;;;;;;;7.45;53.63;101554.00;7389036;19;20007;-62
2022/11/29 01:58:34;;;;;;;26.15;14.52;;;;;;;7.47;53.54;101546.34;7387981;19;20002;-61
2022/11/29 02:01:00;;;;;;;24.05;12.63;;;;;;;7.44;53.40;101547.75;7386772;19;20002;-62
2022/11/29 02:03:26;;;;;;;25.65;13.80;;;;;;;7.39;53.36;101550.56;7390401;19;20007;-63
2022/11/29 02:05:53;;;;;;;22.90;12.90;;;;;;;7.33;53.85;101552.56;7386745;19;20006;-63
2022/11/29 02:08:30;;;;;;;26.40;14.25;;;;;;;7.33;53.77;101552.56;7390037;19;20019;-62
2022/11/29 02:11:14;;;;;;;26.63;15.05;;;;;;;7.37;53.65;101550.84;7388685;19;20002;-62
2022/11/29 02:13:55;;;;;;;27.15;13.93;;;;;;;7.39;53.49;101554.06;7386329;19;20473;-62
2022/11/29 02:16:29;;;;;;;22.05;13.35;;;;;;;7.37;53.74;101556.28;7388286;19;20024;-63
2022/11/29 02:19:27;;;;;;;26.58;14.07;;;;;;;7.35;53.46;101553.06;7396142;19;20473;-62
2022/11/29 02:22:08;;;;;;;24.92;13.23;;;;;;;7.37;53.69;101556.28;7393710;19;20596;-62
2022/11/29 02:24:36;;;;;;;23.98;12.85;;;;;;;7.44;53.48;101547.75;7396161;19;20002;-62
2022/11/29 02:27:31;;;;;;;26.30;13.70;;;;;;;7.43;53.55;101557.00;7394962;19;20482;-62
2022/11/29 02:30:00;;;;;;;25.83;14.38;;;;;;;7.48;53.49;101558.81;7394917;19;20559;-63
2022/11/29 02:32:57;;;;;;;24.67;13.45;;;;;;;7.44;53.58;101557.81;7394255;19;19994;-63
2022/11/29 02:35:44;;;;;;;26.45;13.88;;;;;;;7.49;53.29;101560.44;7368073;19;20466;-63
2022/11/29 02:38:29;;;;;;;24.15;13.25;;;;;;;7.49;53.39;101555.78;7395486;19;19997;-63
2022/11/29 02:40:57;;;;;;;23.70;12.63;;;;;;;7.49;53.31;101560.44;7395555;19;19999;-63
2022/11/29 02:43:52;;;;;;;23.42;12.55;;;;;;;7.48;53.44;101559.63;7393397;19;20371;-63
2022/11/29 02:46:53;;;;;;;25.08;12.75;;;;;;;7.45;53.43;101562.16;7395316;19;20007;-62
2022/11/29 02:49:28;;;;;;;23.58;13.55;;;;;;;7.53;53.29;101569.56;7394080;19;20031;-62
2022/11/29 02:52:03;;;;;;;22.42;12.35;;;;;;;7.47;53.37;101563.44;7391849;19;20009;-62
2022/11/29 02:55:03;;;;;;;24.58;13.18;;;;;;;7.51;53.42;101569.06;7394046;19;20328;-62
2022/11/29 02:57:42;;;;;;;24.13;13.57;;;;;;;7.51;53.24;101566.34;7392930;19;20323;-62
2022/11/29 03:00:19;;;;;;;26.30;13.50;;;;;;;7.48;53.34;101575.09;7393084;19;20009;-62
2022/11/29 03:02:48;;;;;;;24.75;12.98;;;;;;;7.50;53.32;101578.34;7393554;19;20015;-62
2022/11/29 03:05:20;;;;;;;25.35;12.93;;;;;;;7.42;53.47;101577.13;7392420;19;20009;-62
2022/11/29 03:08:04;;;;;;;26.30;12.73;;;;;;;7.47;53.33;101579.75;7395054;19;20003;-62
2022/11/29 03:10:48;;;;;;;23.95;13.20;;;;;;;7.22;54.19;101578.31;7392501;19;20031;-62
2022/11/29 03:13:27;;;;;;;26.25;14.10;;;;;;;7.33;53.86;101585.16;7391176;19;20006;-62
2022/11/29 03:16:04;;;;;;;24.45;13.35;;;;;;;7.37;53.82;101588.88;7394190;19;20007;-62
2022/11/29 03:18:54;;;;;;;26.77;14.40;;;;;;;7.37;53.77;101588.09;7395243;19;20002;-61
2022/11/29 03:21:26;;;;;;;23.52;13.73;;;;;;;7.34;53.77;101589.47;7392746;19;20023;-62
2022/11/29 03:24:01;;;;;;;27.15;14.23;;;;;;;7.27;53.88;101589.06;7394085;19;20082;-62
2022/11/29 03:26:47;;;;;;;25.38;13.52;;;;;;;7.28;54.00;101601.56;7394305;19;20078;-62
2022/11/29 03:29:25;;;;;;;23.85;13.38;;;;;;;7.31;53.96;101594.72;7392831;19;20001;-62
2022/11/29 03:32:07;;;;;;;26.77;13.20;;;;;;;7.33;53.73;101606.91;7392282;19;20002;-62
2022/11/29 03:35:13;;;;;;;25.58;13.10;;;;;;;7.29;54.08;101600.44;7393355;19;20009;-62
2022/11/29 03:37:47;;;;;;;29.05;13.27;;;;;;;7.37;53.79;101607.09;7393516;19;20421;-62
2022/11/29 03:40:20;;;;;;;22.55;12.63;;;;;;;7.30;54.05;101603.97;7392051;19;20003;-62
2022/11/29 03:42:55;;;;;;;25.67;13.43;;;;;;;7.17;54.12;101603.63;7393093;19;20482;-61
2022/11/29 03:45:33;;;;;;;24.60;13.68;;;;;;;7.13;54.51;101609.94;7391986;19;20030;-61
2022/11/29 03:48:17;;;;;;;28.25;13.27;;;;;;;7.23;54.13;101607.09;7393056;19;20003;-61
2022/11/29 03:50:53;;;;;;;22.08;12.45;;;;;;;7.28;54.10;101606.16;7390931;19;19995;-61
2022/11/29 03:53:46;;;;;;;22.70;13.02;;;;;;;7.23;54.41;101612.50;7394429;19;19999;-61
2022/11/29 03:56:27;;;;;;;24.75;14.23;;;;;;;7.25;54.30;101610.28;7392627;19;20003;-62
2022/11/29 03:59:01;;;;;;;22.10;13.13;;;;;;;7.20;54.29;101613.09;7393101;19;20291;-62
2022/11/29 04:01:36;;;;;;;24.70;13.13;;;;;;;7.31;54.23;101613.72;7391817;19;20009;-62
2022/11/29 04:04:14;;;;;;;22.73;13.13;;;;;;;7.38;53.74;101614.94;7392542;19;20002;-62
2022/11/29 04:07:00;;;;;;;23.70;12.82;;;;;;;7.39;53.93;101613.81;7392479;19;19999;-62
2022/11/29 04:09:44;;;;;;;23.33;13.45;;;;;;;7.38;54.02;101623.09;7392633;19;20006;-62
2022/11/29 04:12:15;;;;;;;25.27;14.35;;;;;;;7.33;54.10;101615.03;7390991;19;20023;-62
2022/11/29 04:15:15;;;;;;;26.23;13.90;;;;;;;7.39;53.95;101616.53;7392100;19;20010;-61
2022/11/29 04:18:08;;;;;;;22.50;13.13;;;;;;;7.38;53.65;101619.59;7393308;19;20011;-62
2022/11/29 04:20:37;;;;;;;23.35;12.65;;;;;;;7.27;53.97;101618.94;7390023;19;20010;-62
2022/11/29 04:23:17;;;;;;;27.33;14.50;;;;;;;7.42;53.99;101621.38;7392620;19;20006;-62
2022/11/29 04:26:11;;;;;;;23.50;13.32;;;;;;;7.40;53.76;101623.59;7389690;19;20451;-62
2022/11/29 04:29:07;;;;;;;25.25;13.02;;;;;;;7.37;53.87;101618.75;7393558;19;20031;-62
2022/11/29 04:31:58;;;;;;;22.92;13.43;;;;;;;7.37;54.04;101623.38;7389129;19;20022;-61
2022/11/29 04:34:30;;;;;;;20.67;12.35;;;;;;;7.40;53.94;101623.59;7393067;19;20021;-61
2022/11/29 04:37:07;;;;;;;22.80;12.52;;;;;;;7.41;53.78;101625.22;7391208;19;19999;-61
2022/11/29 04:39:52;;;;;;;22.25;13.18;;;;;;;7.13;54.41;101632.50;7391824;19;20539;-62
2022/11/29 04:42:32;;;;;;;;;;;;;;;7.23;54.70;101631.53;7392055;19;20006;-61
2022/11/29 04:45:25;;;;;;;23.75;13.20;;;;;;;7.32;53.85;101635.16;7390032;19;19922;-62
2022/11/29 04:48:04;;;;;;;24.30;13.40;;;;;;;7.32;54.02;101639.78;7392514;19;20007;-62
2022/11/29 04:50:36;;;;;;;24.60;13.32;;;;;;;7.27;53.95;101637.94;7390438;19;19993;-61
2022/11/29 04:53:13;;;;;;;24.77;13.68;;;;;;;7.29;54.13;101637.66;7391863;19;20002;-62
2022/11/29 04:55:51;;;;;;;24.17;13.85;;;;;;;7.38;53.78;101638.59;7390457;19;19995;-62
2022/11/29 04:58:20;;;;;;;25.05;14.27;;;;;;;7.38;53.64;101650.25;7390814;19;20003;-61
2022/11/29 05:01:11;;;;;;;25.20;14.27;;;;;;;7.25;54.13;101653.75;7391311;19;20006;-61
2022/11/29 05:03:44;;;;;;;25.40;14.60;;;;;;;7.28;54.19;101655.88;7391017;19;20490;-62
2022/11/29 05:06:27;;;;;;;26.30;14.03;;;;;;;7.19;54.33;101650.28;7389645;19;20030;-61
2022/11/29 05:09:24;;;;;;;22.57;14.43;;;;;;;7.16;54.18;101658.22;7389798;19;20446;-61
2022/11/29 05:12:09;;;;;;;26.23;14.13;;;;;;;7.28;54.20;101666.72;7389347;19;20546;-62
2022/11/29 05:14:55;;;;;;;25.40;14.15;;;;;;;7.28;53.97;101665.91;7389507;19;20073;-62
2022/11/29 05:17:35;;;;;;;23.67;13.18;;;;;;;7.30;53.87;101669.16;7390642;19;20062;-62
2022/11/29 05:20:18;;;;;;;23.85;12.55;;;;;;;7.38;53.75;101663.03;7390558;19;19999;-62
2022/11/29 05:23:11;;;;;;;22.83;12.90;;;;;;;7.36;53.93;101657.06;7391041;19;20006;-62
2022/11/29 05:25:42;;;;;;;23.85;13.35;;;;;;;7.39;53.83;101665.44;7388428;19;19998;-61
2022/11/29 05:28:20;;;;;;;22.55;12.88;;;;;;;7.40;53.81;101677.91;7389046;19;19999;-62
2022/11/29 05:31:07;;;;;;;22.58;13.35;;;;;;;7.39;53.76;101670.06;7388536;19;20005;-62
2022/11/29 05:33:42;;;;;;;25.05;14.07;;;;;;;7.32;54.11;101675.09;7390997;19;19994;-62
2022/11/29 05:36:31;;;;;;;24.08;13.57;;;;;;;7.38;53.80;101682.06;7388254;19;20003;-62
2022/11/29 05:39:15;;;;;;;24.45;13.18;;;;;;;7.36;53.85;101686.94;7390293;19;20007;-62
2022/11/29 05:42:07;;;;;;;23.92;13.07;;;;;;;7.39;53.83;101683.66;7389709;19;19999;-62
2022/11/29 05:44:43;;;;;;;24.60;14.18;;;;;;;7.36;53.93;101692.38;7387365;19;20021;-62
2022/11/29 05:47:14;;;;;;;26.73;14.10;;;;;;;7.36;54.12;101692.38;7390729;19;20032;-62
2022/11/29 05:49:56;;;;;;;27.70;14.23;;;;;;;7.38;53.95;101693.72;7390658;19;20069;-62
2022/11/29 05:52:34;;;;;;;25.15;13.93;;;;;;;7.41;53.97;101690.41;7392496;19;20058;-62
2022/11/29 05:55:05;;;;;;;25.90;14.55;;;;;;;7.41;53.92;101695.00;7397320;19;20006;-62
2022/11/29 05:57:53;;;;;;;24.10;13.50;;;;;;;7.36;54.19;101701.34;7397783;19;19998;-62
2022/11/29 06:00:19;;;;;;;27.20;15.05;;;;;;;7.39;53.95;101702.66;7394730;19;20006;-62
2022/11/29 06:02:56;;;;;;;26.38;15.55;;;;;;;7.45;53.98;101706.13;7396353;19;19991;-62
2022/11/29 06:05:36;;;;;;;25.67;15.27;;;;;;;7.28;54.26;101712.06;7394794;19;20022;-62
2022/11/29 06:08:20;;;;;;;29.45;15.90;;;;;;;7.33;54.25;101715.53;7397738;19;20005;-62
2022/11/29 06:11:03;;;;;;;30.63;16.30;;;;;;;7.38;54.06;101718.16;7395297;19;19999;-62
2022/11/29 06:13:48;;;;;;;34.13;17.02;;;;;;;7.27;54.32;101713.19;7394865;19;20090;-62
2022/11/29 06:16:55;;;;;;;27.83;16.23;;;;;;;7.29;54.27;101717.22;7396059;19;20007;-63
2022/11/29 06:19:36;;;;;;;31.98;17.55;;;;;;;7.29;54.17;101719.91;7397102;19;19998;-63
2022/11/29 06:22:19;;;;;;;32.03;17.35;;;;;;;7.31;54.09;101725.88;7394135;19;20010;-62
2022/11/29 06:25:01;;;;;;;28.27;16.85;;;;;;;7.34;54.15;101733.41;7394814;19;20022;-62
2022/11/29 06:28:04;;;;;;;29.80;17.08;;;;;;;7.40;53.92;101732.25;7395060;19;20400;-62
2022/11/29 06:30:52;;;;;;;33.47;17.27;;;;;;;7.41;53.91;101728.44;7395830;19;20011;-67
2022/11/29 06:33:23;;;;;;;34.42;18.30;;;;;;;7.42;53.85;101732.75;7395462;19;20557;-67
2022/11/29 06:36:22;;;;;;;37.67;19.08;;;;;;;7.44;53.59;101739.81;7387745;19;20010;-67
2022/11/29 06:38:48;;;;;;;33.72;18.00;;;;;;;7.39;53.79;101733.34;7395841;19;19995;-66
2022/11/29 06:41:23;;;;;;;33.17;17.05;;;;;;;7.36;53.85;101730.41;7398425;19;20023;-65
2022/11/29 06:43:49;;;;;;;30.92;17.27;;;;;;;7.30;53.62;101735.13;7397868;19;20003;-64
2022/11/29 06:46:30;;;;;;;30.52;16.75;;;;;;;7.19;54.26;101741.81;7391665;19;20098;-63
2022/11/29 06:49:13;;;;;;;31.40;16.05;;;;;;;7.27;54.22;101743.84;7397381;19;20003;-64
2022/11/29 06:51:48;;;;;;;32.10;16.73;;;;;;;7.29;53.96;101747.09;7398112;19;20001;-65
2022/11/29 06:54:37;;;;;;;31.38;16.50;;;;;;;7.29;54.02;101752.50;7397676;19;20090;-63
2022/11/29 06:57:16;;;;;;;32.20;16.80;;;;;;;7.36;53.88;101758.41;7397287;19;20312;-63
2022/11/29 07:00:15;;;;;;;35.85;17.65;;;;;;;7.40;53.77;101755.88;7397191;19;20401;-62
2022/11/29 07:03:12;;;;;;;32.25;17.85;;;;;;;7.22;54.35;101771.09;7394873;19;20007;-63
2022/11/29 07:05:39;;;;;;;32.10;15.35;;;;;;;7.23;54.34;101761.84;7390974;19;20523;-63
2022/11/29 07:08:17;;;;;;;33.47;16.52;;;;;;;7.26;54.19;101766.69;7396929;19;19995;-64
2022/11/29 07:10:45;;;;;;;31.15;15.43;;;;;;;7.33;54.06;101764.41;7395993;19;20347;-64
2022/11/29 07:13:13;;;;;;;32.45;16.25;;;;;;;7.37;54.02;101773.56;7396965;19;20066;-64
2022/11/29 07:15:51;;;;;;;28.90;15.93;;;;;;;7.38;54.00;101769.75;7394014;19;20364;-63
2022/11/29 07:18:36;;;;;;;30.50;16.40;;;;;;;7.34;53.97;101768.72;7396854;19;20050;-62
2022/11/29 07:21:14;;;;;;;28.60;15.60;;;;;;;7.30;53.96;101773.16;7395950;19;20076;-66
2022/11/29 07:24:02;;;;;;;28.80;14.80;;;;;;;7.29;54.12;101778.88;7397596;19;20468;-64
2022/11/29 07:26:59;;;;;;;27.40;15.38;;;;;;;7.31;53.86;101774.78;7393460;19;20002;-64
2022/11/29 07:29:43;;;;;;;27.60;15.57;;;;;;;7.33;53.98;101779.88;7395787;19;20086;-64
2022/11/29 07:32:33;;;;;;;30.55;15.18;;;;;;;7.25;54.07;101778.66;7395748;19;19999;-64
2022/11/29 07:35:32;;;;;;;27.70;15.80;;;;;;;7.27;54.14;101776.44;7393526;19;20015;-64
2022/11/29 07:38:04;;;;;;;29.52;15.07;;;;;;;7.35;53.95;101783.13;7395804;19;19998;-63
2022/11/29 07:41:11;;;;;;;25.60;14.90;;;;;;;7.25;54.26;101786.81;7393887;19;19995;-63
2022/11/29 07:44:07;;;;;;;25.50;14.75;;;;;;;7.27;53.98;101792.75;7396531;19;20003;-63
2022/11/29 07:46:32;;;;;;;26.85;15.20;;;;;;;7.34;53.99;101787.75;7390709;19;20003;-64
2022/11/29 07:48:58;;;;;;;28.67;14.93;;;;;;;7.38;53.78;101793.41;7395064;19;19994;-63
2022/11/29 07:51:24;;;;;;;27.65;15.27;;;;;;;7.33;54.01;101794.28;7394726;19;19994;-63
2022/11/29 07:53:50;;;;;;;28.42;14.77;;;;;;;7.31;54.07;101801.94;7395996;19;20019;-63
2022/11/29 07:56:16;;;;;;;26.90;14.75;;;;;;;7.32;53.85;101806.25;7392754;19;20451;-64
2022/11/29 07:58:41;;;;;;;26.30;14.02;;;;;;;7.31;54.02;101804.66;7395564;19;19991;-62
2022/11/29 08:01:07;;;;;;;23.75;14.07;;;;;;;7.36;54.06;101801.84;7394770;19;20002;-64
2022/11/29 08:03:34;;;;;;;29.38;14.65;;;;;;;7.39;53.72;101806.66;7393554;19;20001;-62
2022/11/29 08:06:01;;;;;;;26.30;14.98;;;;;;;7.30;54.04;101815.81;7392320;19;19993;-62
2022/11/29 08:08:26;;;;;;;23.90;14.35;;;;;;;7.12;54.42;101814.69;7395832;19;19998;-63
2022/11/29 08:10:52;;;;;;;30.45;17.17;;;;;;;7.29;54.32;101817.69;7394660;19;20009;-64
2022/11/29 08:13:21;;;;;;;28.38;16.10;;;;;;;7.32;54.06;101817.09;7395932;19;20006;-64
2022/11/29 08:15:47;;;;;;;24.95;14.25;;;;;;;7.42;53.92;101819.66;7391710;19;19994;-64
2022/11/29 08:18:14;;;;;;;27.20;14.63;;;;;;;7.41;53.71;101826.22;7393991;19;20509;-62
2022/11/29 08:20:41;;;;;;;28.05;15.77;;;;;;;7.48;53.66;101822.31;7393734;19;19998;-63
2022/11/29 08:23:09;;;;;;;26.08;16.30;;;;;;;7.36;54.03;101823.59;7394781;19;19991;-63
2022/11/29 08:25:35;;;;;;;24.65;15.43;;;;;;;7.37;53.75;101819.75;7393628;19;19999;-63
2022/11/29 08:28:01;;;;;;;28.38;17.95;;;;;;;7.47;53.66;101820.72;7395077;19;20343;-64
2022/11/29 08:30:28;;;;;;;35.15;22.15;;;;;;;7.42;53.71;101818.88;7393177;19;19994;-63
2022/11/29 08:32:53;;;;;;;29.67;17.77;;;;;;;7.46;53.71;101828.03;7394410;19;20069;-63
2022/11/29 08:35:21;;;;;;;30.80;20.77;;;;;;;7.41;53.94;101825.41;7391990;19;20015;-63
2022/11/29 08:37:46;;;;;;;25.92;16.00;;;;;;;7.54;53.60;101824.66;7394564;19;20066;-64
2022/11/29 08:40:13;;;;;;;26.42;16.52;;;;;;;7.48;53.77;101828.56;7393455;19;20346;-62
2022/11/29 08:42:38;;;;;;;26.75;15.02;;;;;;;7.54;53.44;101834.72;7395885;19;20093;-61
2022/11/29 08:45:05;;;;;;;30.55;17.85;;;;;;;7.54;53.45;101835.50;7388929;19;20002;-63
2022/11/29 08:47:37;;;;;;;25.52;13.82;;;;;;;7.52;53.71;101831.50;7391752;19;20002;-63
2022/11/29 08:50:13;;;;;;;27.25;14.48;;;;;;;7.56;53.43;101830.63;7392577;19;20003;-64
2022/11/29 08:55:30;;;;;;;25.08;15.07;;;;;;;7.59;53.51;101842.78;7390180;19;20007;-63
2022/11/29 08:58:03;;;;;;;25.08;15.00;;;;;;;7.52;53.70;101847.78;7390599;19;19998;-63
2022/11/29 09:00:28;;;;;;;23.45;13.75;;;;;;;7.58;53.53;101846.63;7391390;19;20022;-63
2022/11/29 09:02:54;;;;;;;25.58;14.68;;;;;;;7.60;53.83;101849.84;7391486;19;20002;-62
2022/11/29 09:05:20;;;;;;;23.27;13.57;;;;;;;7.65;53.52;101857.13;7389987;19;20062;-63
2022/11/29 09:07:45;;;;;;;24.20;14.43;;;;;;;7.67;53.28;101855.72;7391218;19;20014;-62
2022/11/29 09:10:11;;;;;;;24.73;14.05;;;;;;;7.64;53.70;101861.72;7389939;19;20058;-62
2022/11/29 09:12:40;;;;;;;26.73;14.95;;;;;;;7.72;53.57;101860.25;7389998;19;20032;-63
2022/11/29 09:15:08;;;;;;;26.35;15.70;;;;;;;7.74;53.36;101864.28;7390922;19;20007;-64
2022/11/29 09:17:34;;;;;;;26.85;15.55;;;;;;;7.78;53.24;101857.16;7391236;19;20003;-63
2022/11/29 09:19:59;;;;;;;26.75;15.40;;;;;;;7.71;53.46;101869.50;7390034;19;20550;-63
2022/11/29 09:22:25;;;;;;;27.23;15.95;;;;;;;7.66;53.64;101866.88;7391276;19;20002;-62
2022/11/29 09:24:51;;;;;;;28.92;15.52;;;;;;;7.65;53.79;101873.44;7390220;19;20003;-63
2022/11/29 09:27:17;;;;;;;29.25;16.83;;;;;;;7.62;53.77;101872.09;7393195;19;20003;-63
2022/11/29 09:29:42;;;;;;;29.48;17.05;;;;;;;7.70;53.55;101871.44;7398839;19;20002;-63
2022/11/29 09:32:08;;;;;;;30.33;17.50;;;;;;;7.67;53.71;101877.44;7398803;19;20063;-63
2022/11/29 09:34:34;;;;;;;29.95;17.25;;;;;;;7.69;53.62;101877.94;7397527;19;20031;-62
2022/11/29 09:37:00;;;;;;;30.85;17.20;;;;;;;7.71;53.59;101880.38;7393618;19;20011;-62
2022/11/29 09:39:25;;;;;;;30.25;16.52;;;;;;;7.73;53.68;101886.31;7398851;19;20111;-63
2022/11/29 09:42:26;;;;;;;39.42;22.45;;;;;;;7.67;53.78;101888.31;7397656;19;19997;-63
2022/11/29 09:45:19;;;;;;;38.83;22.17;;;;;;;7.64;53.79;101888.09;7396864;19;20058;-62
2022/11/29 09:47:56;;;;;;;33.20;18.67;;;;;;;7.72;53.72;101884.72;7395281;19;20341;-63
2022/11/29 09:50:35;;;;;;;35.63;19.30;;;;;;;7.73;53.47;101887.16;7398256;19;20003;-62
2022/11/29 09:53:03;;;;;;;33.45;19.42;;;;;;;7.78;53.80;101888.97;7397547;19;19998;-62
2022/11/29 09:55:44;;;;;;;44.40;23.63;;;;;;;7.79;53.47;101896.81;7396085;19;20061;-63
2022/11/29 09:58:16;;;;;;;36.28;20.10;;;;;;;7.73;53.74;101892.59;7397675;19;19995;-62
2022/11/29 10:00:51;;;;;;;30.80;18.02;;;;;;;7.83;53.52;101899.78;7397975;19;20589;-62
2022/11/29 10:03:24;;;;;;;36.35;21.13;;;;;;;7.85;53.70;101897.56;7397816;19;20006;-63
2022/11/29 10:06:02;;;;;;;31.55;19.55;;;;;;;7.91;53.41;101903.72;7395092;19;20002;-62
2022/11/29 10:08:31;;;;;;;31.27;19.17;;;;;;;7.87;53.51;101897.28;7397134;19;19999;-62
2022/11/29 10:11:16;;;;;;;32.28;19.00;;;;;;;7.91;53.40;101892.84;7397664;19;19994;-63
2022/11/29 10:13:49;;;;;;;32.85;17.58;;;;;;;7.93;53.58;101888.75;7396984;19;19994;-63
2022/11/29 10:16:24;;;;;;;32.35;19.05;;;;;;;7.91;53.43;101895.56;7394743;19;20054;-63
2022/11/29 10:19:16;;;;;;;32.38;18.55;;;;;;;7.93;53.74;101885.19;7397122;19;20017;-62
2022/11/29 10:21:54;;;;;;;29.08;16.67;;;;;;;7.89;53.67;101897.78;7397137;19;20002;-61
2022/11/29 10:24:22;;;;;;;27.58;15.48;;;;;;;7.86;53.76;101890.22;7395509;19;20002;-61
2022/11/29 10:26:47;;;;;;;26.05;15.75;;;;;;;7.94;53.42;101889.53;7396100;19;20006;-61
2022/11/29 10:29:15;;;;;;;27.13;16.45;;;;;;;7.91;53.56;101890.13;7397010;19;19998;-61
2022/11/29 10:31:45;;;;;;;30.58;16.30;;;;;;;7.91;53.82;101892.84;7396503;19;20002;-61
2022/11/29 10:34:17;;;;;;;26.25;16.05;;;;;;;7.96;53.59;101882.72;7397036;19;20002;-62
2022/11/29 10:36:54;;;;;;;25.92;15.70;;;;;;;8.03;53.35;101882.34;7392546;19;20359;-62
2022/11/29 10:39:36;;;;;;;27.45;16.17;;;;;;;8.01;53.57;101889.94;7395783;19;20010;-62
2022/11/29 10:42:03;;;;;;;27.20;16.50;;;;;;;8.10;53.54;101887.38;7396510;19;19999;-61
2022/11/29 10:44:31;;;;;;;29.20;16.45;;;;;;;8.12;53.10;101885.97;7395445;19;20439;-62
2022/11/29 10:47:00;;;;;;;27.50;16.35;;;;;;;8.16;53.52;101887.00;7393861;19;20351;-62
2022/11/29 10:49:31;;;;;;;27.67;17.10;;;;;;;8.14;53.41;101893.84;7396345;19;19999;-62
2022/11/29 10:51:57;;;;;;;27.70;15.63;;;;;;;7.98;53.99;101896.00;7395955;19;20472;-62
2022/11/29 10:54:40;;;;;;;27.55;16.38;;;;;;;8.08;53.79;101886.84;7394623;19;20010;-62
2022/11/29 10:57:17;;;;;;;27.83;15.82;;;;;;;8.06;53.71;101889.88;7396009;19;20010;-62
2022/11/29 11:00:08;;;;;;;29.38;17.15;;;;;;;8.03;54.11;101890.50;7395824;19;20357;-62
2022/11/29 11:02:41;;;;;;;30.15;17.60;;;;;;;7.99;54.08;101894.88;7395430;19;19998;-62
2022/11/29 11:05:18;;;;;;;29.20;16.40;;;;;;;8.07;53.72;101888.78;7393579;19;20011;-63
2022/11/29 11:07:46;;;;;;;28.10;16.42;;;;;;;8.12;53.58;101893.31;7395282;19;20351;-62
2022/11/29 11:10:26;;;;;;;29.52;17.55;;;;;;;8.05;54.12;101891.00;7395891;19;20328;-62
2022/11/29 11:13:18;;;;;;;32.33;17.42;;;;;;;8.13;53.84;101884.03;7394617;19;20475;-62
2022/11/29 11:15:44;;;;;;;28.85;17.30;;;;;;;8.18;53.81;101880.44;7393027;19;20341;-62
2022/11/29 11:18:22;;;;;;;27.95;16.80;;;;;;;8.25;53.80;101880.88;7394979;19;20004;-63
2022/11/29 11:20:55;;;;;;;28.25;17.05;;;;;;;8.19;53.84;101887.50;7393928;19;20082;-63
2022/11/29 11:23:32;;;;;;;33.73;17.47;;;;;;;8.21;53.90;101885.28;7395621;19;20007;-61
2022/11/29 11:26:07;;;;;;;30.75;17.02;;;;;;;8.14;54.12;101891.91;7390654;19;20058;-62
2022/11/29 11:28:54;;;;;;;29.65;17.25;;;;;;;8.23;53.82;101893.94;7394691;19;20003;-63
2022/11/29 11:31:39;;;;;;;28.58;17.05;;;;;;;8.13;54.35;101887.59;7395097;19;20109;-63
2022/11/29 11:34:17;;;;;;;;;;;;;;;8.21;54.06;101890.72;7396278;19;19998;-62
2022/11/29 11:36:42;;;;;;;33.30;18.23;;;;;;;8.25;53.82;101899.91;7392301;19;19929;-62
2022/11/29 11:39:11;;;;;;;28.13;16.90;;;;;;;8.24;53.92;101895.56;7392241;19;20066;-62
2022/11/29 11:44:49;;;;;;;30.77;17.02;;;;;;;8.25;54.02;101899.91;7393451;19;20018;-63
2022/11/29 11:47:30;;;;;;;31.60;17.00;;;;;;;8.29;54.03;101899.00;7393224;19;20010;-64
2022/11/29 11:50:02;;;;;;;30.42;17.63;;;;;;;8.30;53.78;101894.38;7392898;19;20009;-63
2022/11/29 11:52:32;;;;;;;30.40;17.50;;;;;;;8.20;54.22;101891.81;7394393;19;20003;-64
2022/11/29 11:55:01;;;;;;;29.00;16.77;;;;;;;8.25;54.17;101891.75;7392944;19;20013;-64
2022/11/29 11:57:28;;;;;;;31.48;16.88;;;;;;;8.32;54.11;101886.75;7394253;19;19999;-64
2022/11/29 11:59:56;;;;;;;29.50;17.60;;;;;;;8.33;53.99;101896.50;7392685;19;20324;-62